Cook Springs, Alabama
Current Conditions -  °F | °C
As of 8:55 AM on Saturday 01 Nov 2014 (Local Time) from KASN Reporting Station
Overcast Overcast  
Wind Chill: 34°   Ceiling: 3600
Heat Index: 41°   Visibility: 10mi
Dew Point: 29°   Wind: 12mph
Humidity: 63%   Direction: 320°NW
Pressure: 30.19"   Gusts: 18mph
Location:  33.59°N, 86.39°W
Report Text: KASN 011355Z AUTO 32010G16KT 10SM OVC036 05/M01 A3019 RMK AO2 T00501015
Loading
Personal Weather Stations






























Interactive Weather Map
Tropical Storm Tracking
New forecast layout! Learn more

10-Day Weather Forecast

Advertisements
Track Severe Weather on mobile